createdAt,value
2019-04-22T00:00:01.051Z,8.90
2019-04-22T00:02:40.084Z,8.82
2019-04-22T00:05:16.215Z,8.71
2019-04-22T00:08:06.827Z,8.70
2019-04-22T00:10:39.221Z,8.79
2019-04-22T00:13:06.702Z,8.75
2019-04-22T00:15:39.150Z,8.66
2019-04-22T00:18:26.657Z,8.63
2019-04-22T00:20:54.247Z,8.62
2019-04-22T00:23:18.780Z,8.54
2019-04-22T00:25:56.057Z,8.51
2019-04-22T00:28:30.726Z,8.50
2019-04-22T00:31:06.679Z,8.43
2019-04-22T00:33:35.377Z,8.31
2019-04-22T00:36:08.981Z,8.25
2019-04-22T00:38:38.638Z,8.09
2019-04-22T00:41:16.145Z,8.03
2019-04-22T00:43:48.129Z,8.01
2019-04-22T00:46:18.183Z,8.07
2019-04-22T00:48:53.245Z,8.08
2019-04-22T00:51:22.586Z,7.95
2019-04-22T00:53:57.855Z,7.87
2019-04-22T00:56:22.058Z,7.90
2019-04-22T00:58:59.116Z,7.93
2019-04-22T01:01:31.923Z,7.90
2019-04-22T01:06:35.531Z,7.79
2019-04-22T01:09:10.707Z,7.73
2019-04-22T01:11:41.957Z,7.72
2019-04-22T01:14:13.115Z,7.73
2019-04-22T01:16:50.473Z,7.65
2019-04-22T01:19:25.963Z,7.58
2019-04-22T01:21:52.418Z,7.42
2019-04-22T01:24:22.195Z,7.40
2019-04-22T01:26:50.805Z,7.41
2019-04-22T01:29:20.221Z,7.41
2019-04-22T01:31:43.451Z,7.37
2019-04-22T01:34:28.859Z,7.26
2019-04-22T01:37:02.595Z,7.23
2019-04-22T01:39:44.110Z,7.14
2019-04-22T01:42:10.766Z,7.23
2019-04-22T01:44:45.583Z,7.30
2019-04-22T01:47:29.967Z,7.27
2019-04-22T01:49:55.610Z,7.19
2019-04-22T01:52:31.016Z,7.11
2019-04-22T01:55:07.257Z,7.08
2019-04-22T01:57:28.866Z,7.05
2019-04-22T02:00:00.442Z,7.06
2019-04-22T02:02:42.287Z,7.03
2019-04-22T02:05:12.266Z,6.98
2019-04-22T02:07:42.397Z,6.83
2019-04-22T02:10:19.716Z,6.70
2019-04-22T02:12:54.013Z,6.63
2019-04-22T02:15:24.013Z,6.58
2019-04-22T02:18:01.602Z,6.57
2019-04-22T02:20:31.139Z,6.55
2019-04-22T02:23:45.820Z,6.54
2019-04-22T02:28:38.353Z,6.56
2019-04-22T02:31:22.985Z,6.54
2019-04-22T02:34:01.270Z,6.44
2019-04-22T02:36:23.002Z,6.36
2019-04-22T02:54:27.092Z,6.15
2019-04-22T02:56:31.417Z,6.10
2019-04-22T02:59:11.581Z,6.05
2019-04-22T03:01:45.038Z,6.01
2019-04-22T03:06:38.494Z,5.99
2019-04-22T03:09:19.033Z,6.00
2019-04-22T03:11:56.508Z,6.09
2019-04-22T03:14:35.651Z,6.11
2019-04-22T03:16:54.891Z,6.21
2019-04-22T03:19:43.363Z,6.23
2019-04-22T03:21:59.910Z,6.16
2019-04-22T03:24:50.294Z,6.08
2019-04-22T03:27:00.861Z,5.93
2019-04-22T03:40:28.666Z,5.55
2019-04-22T03:50:27.909Z,5.48
2019-04-22T03:53:09.020Z,5.42
2019-04-22T03:55:31.050Z,5.40
2019-04-22T04:00:43.009Z,5.33
2019-04-22T04:03:29.069Z,5.36
2019-04-22T04:08:31.833Z,5.32
2019-04-22T04:10:47.736Z,5.28
2019-04-22T04:15:48.481Z,5.28
2019-04-22T04:18:30.710Z,5.26
2019-04-22T04:21:14.526Z,5.23
2019-04-22T04:26:04.816Z,5.34
2019-04-22T04:31:22.311Z,5.44
2019-04-22T04:36:23.691Z,5.44
2019-04-22T04:41:24.831Z,5.37
2019-04-22T04:44:04.450Z,5.36
2019-04-22T04:46:42.833Z,5.48
2019-04-22T04:49:18.197Z,5.47
2019-04-22T04:51:38.136Z,5.41
2019-04-22T04:54:15.177Z,5.42
2019-04-22T04:56:50.781Z,5.44
2019-04-22T05:01:44.919Z,5.49
2019-04-22T05:04:26.382Z,5.59
2019-04-22T05:06:59.886Z,5.69
2019-04-22T05:17:02.350Z,6.09
2019-04-22T05:19:26.054Z,6.17
2019-04-22T05:22:05.208Z,6.27
2019-04-22T05:27:13.312Z,6.50
2019-04-22T05:29:58.196Z,6.62
2019-04-22T05:32:09.214Z,6.72
2019-04-22T05:34:44.578Z,6.96
2019-04-22T05:37:14.887Z,7.12
2019-04-22T05:39:43.672Z,7.28
2019-04-22T05:42:17.949Z,7.56
2019-04-22T05:45:00.858Z,7.92
2019-04-22T05:47:19.550Z,8.51
2019-04-22T05:49:54.671Z,9.07
2019-04-22T05:52:29.968Z,9.62
2019-04-22T05:55:03.314Z,10.01
2019-04-22T05:57:38.330Z,10.36
2019-04-22T06:00:19.296Z,10.74
2019-04-22T06:05:11.854Z,11.43
2019-04-22T06:07:46.870Z,11.89
2019-04-22T06:10:30.776Z,12.19
2019-04-22T06:12:55.257Z,12.58
2019-04-22T06:15:23.382Z,12.93
2019-04-22T06:18:12.702Z,13.16
2019-04-22T06:20:36.938Z,13.55
2019-04-22T06:23:12.650Z,14.01
2019-04-22T06:28:22.010Z,14.17
2019-04-22T06:30:54.604Z,14.27
2019-04-22T06:33:20.260Z,14.52
2019-04-22T06:41:05.792Z,15.71
2019-04-22T06:43:35.410Z,16.19
2019-04-22T06:46:08.382Z,16.84
2019-04-22T06:48:36.278Z,17.28
2019-04-22T06:51:08.074Z,17.47
2019-04-22T06:53:41.137Z,17.66
2019-04-22T06:56:17.298Z,17.51
2019-04-22T06:58:45.766Z,17.65
2019-04-22T07:01:39.060Z,17.73
2019-04-22T07:04:03.584Z,17.70
2019-04-22T07:06:33.358Z,17.67
2019-04-22T07:09:22.030Z,17.87
2019-04-22T07:11:30.718Z,17.89
2019-04-22T07:16:39.351Z,18.20
2019-04-22T07:19:09.251Z,18.25
2019-04-22T07:21:57.718Z,18.44
2019-04-22T07:24:28.250Z,18.58
2019-04-22T07:26:44.947Z,18.91
2019-04-22T07:29:23.168Z,18.99
2019-04-22T07:31:54.504Z,19.01
2019-04-22T07:34:31.085Z,19.10
2019-04-22T07:36:59.116Z,19.16
2019-04-22T07:39:33.427Z,19.41
2019-04-22T07:42:05.548Z,19.65
2019-04-22T07:44:43.578Z,19.75
2019-04-22T07:47:18.585Z,19.80
2019-04-22T07:49:47.351Z,19.84
2019-04-22T07:52:17.575Z,19.98
2019-04-22T07:54:47.885Z,20.04
2019-04-22T07:59:57.184Z,20.55
2019-04-22T08:02:31.801Z,20.72
2019-04-22T08:07:38.380Z,20.98
2019-04-22T08:10:09.472Z,21.09
2019-04-22T08:12:39.828Z,21.41
2019-04-22T08:15:06.081Z,21.29
2019-04-22T08:17:57.821Z,21.65
2019-04-22T08:20:19.250Z,21.65
2019-04-22T08:22:56.055Z,22.29
2019-04-22T08:25:16.483Z,22.59
2019-04-22T08:27:53.298Z,22.83
2019-04-22T08:30:28.322Z,23.01
2019-04-22T08:33:03.661Z,22.95
2019-04-22T08:35:48.843Z,22.33
2019-04-22T08:38:06.865Z,22.38
2019-04-22T08:40:45.551Z,22.32
2019-04-22T08:43:30.767Z,22.09
2019-04-22T08:45:54.619Z,22.31
2019-04-22T08:48:18.085Z,22.46
2019-04-22T08:51:09.283Z,21.74
2019-04-22T08:53:26.458Z,22.19
2019-04-22T08:55:59.504Z,22.08
2019-04-22T08:58:29.503Z,22.35
2019-04-22T09:03:33.224Z,22.32
2019-04-22T09:06:17.719Z,22.01
2019-04-22T09:08:45.650Z,22.36
2019-04-22T09:11:18.449Z,23.03
2019-04-22T09:13:52.111Z,22.87
2019-04-22T09:16:19.407Z,22.96
2019-04-22T09:21:26.406Z,23.47
2019-04-22T09:23:58.689Z,23.78
2019-04-22T09:26:30.597Z,24.27
2019-04-22T09:29:05.029Z,24.21
2019-04-22T09:34:06.774Z,24.05
2019-04-22T09:39:14.195Z,23.98
2019-04-22T09:41:49.487Z,23.91
2019-04-22T09:44:16.302Z,24.11
2019-04-22T09:49:28.756Z,25.44
2019-04-22T09:52:01.445Z,24.93
2019-04-22T09:54:41.388Z,24.72
2019-04-22T09:57:02.190Z,24.67
2019-04-22T09:59:34.898Z,25.24
2019-04-22T10:02:21.956Z,24.52
2019-04-22T10:04:40.538Z,24.57
2019-04-22T10:07:16.448Z,25.18
2019-04-22T10:10:03.215Z,25.91
2019-04-22T10:12:20.595Z,26.08
2019-04-22T10:14:49.439Z,26.09
2019-04-22T10:17:18.568Z,25.90
2019-04-22T10:19:57.896Z,26.86
2019-04-22T10:22:32.109Z,26.93
2019-04-22T10:27:32.798Z,26.21
2019-04-22T10:30:08.514Z,26.21
2019-04-22T10:32:35.972Z,26.78
2019-04-22T10:35:12.182Z,27.02
2019-04-22T10:37:38.841Z,26.61
2019-04-22T10:40:17.791Z,26.55
2019-04-22T10:42:51.502Z,27.87
2019-04-22T10:45:23.890Z,28.92
2019-04-22T10:47:56.072Z,28.94
2019-04-22T10:50:33.158Z,28.35
2019-04-22T10:53:04.008Z,29.06
2019-04-22T10:55:35.339Z,29.45
2019-04-22T10:58:06.705Z,29.67
2019-04-22T11:00:39.619Z,29.29
2019-04-22T11:03:12.068Z,27.52
2019-04-22T11:05:44.277Z,28.29
2019-04-22T11:08:24.337Z,28.17
2019-04-22T11:11:04.724Z,28.36
2019-04-22T11:13:22.231Z,27.74
2019-04-22T11:15:54.874Z,27.67
2019-04-22T11:18:27.373Z,28.15
2019-04-22T11:20:59.835Z,28.43
2019-04-22T11:23:32.413Z,27.73
2019-04-22T11:26:04.200Z,27.92
2019-04-22T11:28:35.886Z,28.18
2019-04-22T11:31:06.302Z,28.76
2019-04-22T11:33:38.595Z,29.27
2019-04-22T11:36:10.139Z,28.27
2019-04-22T11:38:48.634Z,27.93
2019-04-22T11:41:14.798Z,29.28
2019-04-22T11:43:47.373Z,29.22
2019-04-22T11:46:18.556Z,28.78
2019-04-22T11:48:51.904Z,29.63
2019-04-22T11:51:24.227Z,28.82
2019-04-22T11:53:56.732Z,28.45
2019-04-22T11:56:29.217Z,28.33
2019-04-22T11:59:00.782Z,28.96
2019-04-22T12:01:32.973Z,27.79
2019-04-22T12:04:04.659Z,27.76
2019-04-22T12:06:36.043Z,28.15
2019-04-22T12:09:11.950Z,28.30
2019-04-22T12:11:44.411Z,28.70
2019-04-22T12:14:15.897Z,27.86
2019-04-22T12:16:47.744Z,27.58
2019-04-22T12:19:19.078Z,27.47
2019-04-22T12:21:51.209Z,27.29
2019-04-22T12:24:23.303Z,27.66
2019-04-22T12:26:56.100Z,28.14
2019-04-22T12:29:27.091Z,28.49
2019-04-22T12:31:59.676Z,29.22
2019-04-22T12:34:31.111Z,28.65
2019-04-22T12:37:02.703Z,28.74
2019-04-22T12:39:33.792Z,28.54
2019-04-22T12:42:06.206Z,29.66
2019-04-22T12:44:39.186Z,29.06
2019-04-22T12:47:09.852Z,29.31
2019-04-22T12:49:42.494Z,28.33
2019-04-22T12:52:24.324Z,28.35
2019-04-22T12:54:48.958Z,29.08
2019-04-22T12:57:20.692Z,29.78
2019-04-22T12:59:53.266Z,29.62
2019-04-22T13:02:25.164Z,29.13
2019-04-22T13:04:56.500Z,28.17
2019-04-22T13:07:27.406Z,27.40
2019-04-22T13:09:59.251Z,28.53
2019-04-22T13:12:31.091Z,29.03
2019-04-22T13:15:04.793Z,28.48
2019-04-22T13:17:35.742Z,28.47
2019-04-22T13:20:09.801Z,28.93
2019-04-22T13:22:40.967Z,28.74
2019-04-22T13:25:13.265Z,28.44
2019-04-22T13:27:44.898Z,28.37
2019-04-22T13:30:18.593Z,28.25
2019-04-22T13:32:49.821Z,28.20
2019-04-22T13:35:22.251Z,29.10
2019-04-22T13:37:54.958Z,29.57
2019-04-22T13:40:25.970Z,28.89
2019-04-22T13:42:58.512Z,28.70
2019-04-22T13:45:29.830Z,29.72
2019-04-22T13:48:18.071Z,30.40
2019-04-22T13:51:05.718Z,30.51
2019-04-22T13:56:05.538Z,31.17
2019-04-22T13:58:29.066Z,31.28
2019-04-22T14:00:46.803Z,31.27
2019-04-22T14:03:36.084Z,31.12
2019-04-22T14:06:09.053Z,31.48
2019-04-22T14:08:40.860Z,30.50
2019-04-22T14:11:21.603Z,30.12
2019-04-22T14:13:45.981Z,30.08
2019-04-22T14:16:17.302Z,30.19
2019-04-22T14:18:49.674Z,30.01
2019-04-22T14:21:21.148Z,29.76
2019-04-22T14:23:52.969Z,29.35
2019-04-22T14:26:25.017Z,29.02
2019-04-22T14:28:57.463Z,28.73
2019-04-22T14:31:28.777Z,28.60
2019-04-22T14:34:03.426Z,28.02
2019-04-22T14:36:33.111Z,27.69
2019-04-22T14:39:08.117Z,27.48
2019-04-22T14:41:55.126Z,27.53
2019-04-22T14:49:42.058Z,27.32
2019-04-22T14:52:15.346Z,27.84
2019-04-22T14:54:37.614Z,27.18
2019-04-22T14:56:56.349Z,27.17
2019-04-22T14:59:29.089Z,27.99
2019-04-22T15:02:01.405Z,28.17
2019-04-22T15:04:33.063Z,28.79
2019-04-22T15:07:05.289Z,28.08
2019-04-22T15:09:37.812Z,28.08
2019-04-22T15:12:18.525Z,28.52
2019-04-22T15:14:41.867Z,28.62
2019-04-22T15:17:20.812Z,28.69
2019-04-22T15:19:54.008Z,28.19
2019-04-22T15:22:26.305Z,27.63
2019-04-22T15:24:56.857Z,27.13
2019-04-22T15:27:30.828Z,26.37
2019-04-22T15:30:01.294Z,26.07
2019-04-22T15:32:33.524Z,25.61
2019-04-22T15:35:07.317Z,25.67
2019-04-22T15:37:39.411Z,25.58
2019-04-22T15:40:11.222Z,25.47
2019-04-22T15:42:43.755Z,25.45
2019-04-22T15:45:16.569Z,25.38
2019-04-22T15:47:52.354Z,24.77
2019-04-22T15:50:24.555Z,24.23
2019-04-22T15:53:00.795Z,24.23
2019-04-22T15:55:32.534Z,23.95
2019-04-22T15:58:07.810Z,24.10
2019-04-22T16:00:52.117Z,24.05
2019-04-22T16:03:12.459Z,24.13
2019-04-22T16:05:44.125Z,24.23
2019-04-22T16:08:15.321Z,24.52
2019-04-22T16:10:46.333Z,24.71
2019-04-22T16:13:23.043Z,24.61
2019-04-22T16:15:49.870Z,24.47
2019-04-22T16:18:22.251Z,24.49
2019-04-22T16:20:54.295Z,24.59
2019-04-22T16:23:36.551Z,24.76
2019-04-22T16:26:26.456Z,24.75
2019-04-22T16:28:58.123Z,25.05
2019-04-22T16:31:31.323Z,25.04
2019-04-22T16:34:02.714Z,24.81
2019-04-22T16:36:34.558Z,24.79
2019-04-22T16:39:08.987Z,24.88
2019-04-22T16:41:40.718Z,24.71
2019-04-22T16:44:12.318Z,24.62
2019-04-22T16:46:43.643Z,24.67
2019-04-22T16:49:15.920Z,24.42
2019-04-22T16:51:47.836Z,24.24
2019-04-22T16:54:20.220Z,23.96
2019-04-22T16:56:52.280Z,23.22
2019-04-22T16:59:24.505Z,22.99
2019-04-22T17:02:06.397Z,22.87
2019-04-22T17:04:44.857Z,22.77
2019-04-22T17:07:16.112Z,22.62
2019-04-22T17:09:47.963Z,22.46
2019-04-22T17:12:19.613Z,22.32
2019-04-22T17:14:58.113Z,22.29
2019-04-22T17:17:24.540Z,22.30
2019-04-22T17:19:59.623Z,22.23
2019-04-22T17:22:33.467Z,22.14
2019-04-22T17:25:09.505Z,21.85
2019-04-22T17:27:41.446Z,21.66
2019-04-22T17:30:12.437Z,21.51
2019-04-22T17:32:48.233Z,21.42
2019-04-22T17:35:20.058Z,21.31
2019-04-22T17:38:04.215Z,21.23
2019-04-22T17:40:43.861Z,21.04
2019-04-22T17:43:34.286Z,20.86
2019-04-22T17:45:57.310Z,20.70
2019-04-22T17:48:49.190Z,20.58
2019-04-22T17:51:30.048Z,20.43
2019-04-22T17:53:58.120Z,20.31
2019-04-22T17:56:27.330Z,20.17
2019-04-22T17:59:15.542Z,19.86
2019-04-22T18:01:32.655Z,19.86
2019-04-22T18:03:51.575Z,19.77
2019-04-22T18:06:44.027Z,19.65
2019-04-22T18:09:14.641Z,19.55
2019-04-22T18:11:48.985Z,19.43
2019-04-22T18:14:35.013Z,19.33
2019-04-22T18:16:49.937Z,19.26
2019-04-22T18:19:21.572Z,19.14
2019-04-22T18:21:50.052Z,19.01
2019-04-22T18:24:17.451Z,18.88
2019-04-22T18:27:06.975Z,18.78
2019-04-22T18:29:33.353Z,18.74
2019-04-22T18:31:55.585Z,18.68
2019-04-22T18:34:30.854Z,18.53
2019-04-22T18:37:09.248Z,18.47
2019-04-22T18:39:46.430Z,18.37
2019-04-22T18:42:09.354Z,18.28
2019-04-22T18:44:55.798Z,18.18
2019-04-22T18:47:18.548Z,18.08
2019-04-22T18:49:53.220Z,18.00
2019-04-22T18:52:50.347Z,17.96
2019-04-22T18:55:16.589Z,17.84
2019-04-22T18:58:05.443Z,17.71
2019-04-22T19:00:31.672Z,17.62
2019-04-22T19:03:08.899Z,17.62
2019-04-22T19:06:00.952Z,17.58
2019-04-22T19:08:29.153Z,17.46
2019-04-22T19:11:08.307Z,17.33
2019-04-22T19:18:45.926Z,17.08
2019-04-22T19:21:17.427Z,16.96
2019-04-22T19:23:52.024Z,16.98
2019-04-22T19:26:33.311Z,16.93
2019-04-22T19:28:54.431Z,16.90
2019-04-22T19:31:43.863Z,16.86
2019-04-22T19:34:00.775Z,16.76
2019-04-22T19:36:33.661Z,16.66
2019-04-22T19:38:58.947Z,16.62
2019-04-22T19:41:38.897Z,16.55
2019-04-22T19:44:08.460Z,16.47
2019-04-22T19:46:42.487Z,16.35
2019-04-22T19:49:29.083Z,16.30
2019-04-22T19:51:55.903Z,16.24
2019-04-22T19:54:17.441Z,16.18
2019-04-22T19:56:42.903Z,16.13
2019-04-22T19:59:14.924Z,16.06
2019-04-22T20:02:07.383Z,16.01
2019-04-22T20:04:52.565Z,15.90
2019-04-22T20:07:15.383Z,15.90
2019-04-22T20:09:55.174Z,15.83
2019-04-22T20:12:24.776Z,15.79
2019-04-22T20:14:54.454Z,15.68
2019-04-22T20:17:41.523Z,15.57
2019-04-22T20:20:09.871Z,15.50
2019-04-22T20:22:32.804Z,15.44
2019-04-22T20:24:55.389Z,15.43
2019-04-22T20:27:46.051Z,15.31
2019-04-22T20:30:14.106Z,15.29
2019-04-22T20:32:43.088Z,15.23
2019-04-22T20:35:21.585Z,15.15
2019-04-22T20:37:54.800Z,15.13
2019-04-22T20:40:23.316Z,15.06
2019-04-22T20:43:04.458Z,15.09
2019-04-22T20:45:34.874Z,15.00
2019-04-22T20:47:53.825Z,14.92
2019-04-22T20:50:41.281Z,14.91
2019-04-22T20:53:18.951Z,14.86
2019-04-22T20:55:43.587Z,14.74
2019-04-22T20:58:15.390Z,14.67
2019-04-22T21:00:44.325Z,14.65
2019-04-22T21:03:13.198Z,14.64
2019-04-22T21:05:43.110Z,14.61
2019-04-22T21:08:33.657Z,14.56
2019-04-22T21:10:52.049Z,14.44
2019-04-22T21:13:23.077Z,14.39
2019-04-22T21:16:09.298Z,14.36
2019-04-22T21:18:30.457Z,14.35
2019-04-22T21:21:16.955Z,14.28
2019-04-22T21:23:35.092Z,14.23
2019-04-22T21:26:16.703Z,14.19
2019-04-22T21:28:47.656Z,14.18
2019-04-22T21:31:23.531Z,14.15
2019-04-22T21:33:51.628Z,14.14
2019-04-22T21:36:29.736Z,14.11
2019-04-22T21:39:00.853Z,14.03
2019-04-22T21:41:32.422Z,13.96
2019-04-22T21:44:05.521Z,13.90
2019-04-22T21:46:37.172Z,13.90
2019-04-22T21:49:12.317Z,13.80
2019-04-22T21:51:43.474Z,13.78
2019-04-22T21:54:15.466Z,13.78
2019-04-22T21:57:09.064Z,13.75
2019-04-22T21:59:32.080Z,13.74
2019-04-22T22:02:04.387Z,13.62
2019-04-22T22:04:32.124Z,13.61
2019-04-22T22:06:55.323Z,13.58
2019-04-22T22:09:43.966Z,13.53
2019-04-22T22:12:11.657Z,13.53
2019-04-22T22:14:47.771Z,13.53
2019-04-22T22:17:17.364Z,13.57
2019-04-22T22:19:51.960Z,13.54
2019-04-22T22:22:41.767Z,13.45
2019-04-22T22:24:59.993Z,13.41
2019-04-22T22:27:33.902Z,13.32
2019-04-22T22:30:19.206Z,13.32
2019-04-22T22:32:37.090Z,13.27
2019-04-22T22:35:06.751Z,13.23
2019-04-22T22:37:37.223Z,13.19
2019-04-22T22:40:00.883Z,13.19
2019-04-22T22:42:34.545Z,13.19
2019-04-22T22:45:08.902Z,13.18
2019-04-22T22:47:53.372Z,13.13
2019-04-22T22:50:28.288Z,13.04
2019-04-22T22:53:19.160Z,13.06
2019-04-22T22:55:37.514Z,12.96
2019-04-22T22:58:14.299Z,13.03
2019-04-22T23:00:35.229Z,13.02
2019-04-22T23:05:50.458Z,13.10
2019-04-22T23:08:20.052Z,13.05
2019-04-22T23:11:05.145Z,12.93
2019-04-22T23:13:25.821Z,12.96
2019-04-22T23:15:50.742Z,12.88
2019-04-22T23:18:10.093Z,12.80
2019-04-22T23:20:45.574Z,12.75
2019-04-22T23:23:36.113Z,12.76
2019-04-22T23:26:06.939Z,12.80
2019-04-22T23:28:43.513Z,12.76
2019-04-22T23:31:21.156Z,12.66
2019-04-22T23:33:56.054Z,12.59
2019-04-22T23:36:25.157Z,12.61
2019-04-22T23:39:14.480Z,12.68
2019-04-22T23:41:45.808Z,12.66
2019-04-22T23:44:20.177Z,12.64
2019-04-22T23:46:47.041Z,12.59
2019-04-22T23:49:22.302Z,12.53
2019-04-22T23:54:53.777Z,12.58
2019-04-22T23:57:24.091Z,12.56
2019-04-22T23:59:56.378Z,12.48
